Time;durP1;ratioP1;P1;durP2;ratioP2;P2;SDS_P1;SDS_P2;PMS_P1;PMS_P2;Temp;Humidity;BMP_temperature;BMP_pressure;BME280_temperature;BME280_humidity;BME280_pressure;Samples;Min_cycle;Max_cycle;Signal;HPM_P1;HPM_P2
2021/04/27 00:00:14;;;;;;;12.98;4.55;;;6.40;99.90;;;;;;5067407;28;20041;-52
2021/04/27 00:02:40;;;;;;;8.15;3.75;;;6.50;99.90;;;;;;5076077;28;20067;-52
2021/04/27 00:05:08;;;;;;;9.70;3.90;;;6.40;99.90;;;;;;5074420;28;20055;-51
2021/04/27 00:07:34;;;;;;;11.93;4.93;;;6.40;99.90;;;;;;5073291;28;20024;-50
2021/04/27 00:10:00;;;;;;;6.93;3.90;;;6.30;99.90;;;;;;5068791;28;20513;-50
2021/04/27 00:12:26;;;;;;;7.15;4.38;;;6.30;99.90;;;;;;5073087;28;20028;-49
2021/04/27 00:14:51;;;;;;;10.20;4.57;;;6.30;99.90;;;;;;5073958;28;20030;-50
2021/04/27 00:17:17;;;;;;;11.93;4.78;;;6.20;99.90;;;;;;5068865;28;20490;-50
2021/04/27 00:19:42;;;;;;;8.98;3.45;;;6.20;99.90;;;;;;5063871;28;20718;-53
2021/04/27 00:22:08;;;;;;;7.95;3.80;;;6.20;99.90;;;;;;5067691;28;20040;-52
2021/04/27 00:24:34;;;;;;;7.63;3.70;;;6.20;99.90;;;;;;5068818;28;20111;-52
2021/04/27 00:27:00;;;;;;;9.38;4.57;;;6.10;99.90;;;;;;5067762;28;20609;-49
2021/04/27 00:29:26;;;;;;;9.25;4.50;;;6.00;99.90;;;;;;5065301;28;20029;-52
2021/04/27 00:31:51;;;;;;;9.68;4.05;;;6.00;99.90;;;;;;5070539;28;20190;-54
2021/04/27 00:34:17;;;;;;;9.00;4.05;;;5.90;99.90;;;;;;5066457;28;20024;-49
2021/04/27 00:36:43;;;;;;;13.05;4.13;;;5.90;99.90;;;;;;5064868;28;20131;-51
2021/04/27 00:39:08;;;;;;;8.93;4.45;;;5.80;99.90;;;;;;5069783;28;20033;-49
2021/04/27 00:41:34;;;;;;;8.27;4.45;;;5.80;99.90;;;;;;5069162;28;20040;-50
2021/04/27 00:44:00;;;;;;;6.53;3.70;;;5.80;99.90;;;;;;5072260;28;20074;-51
2021/04/27 00:46:25;;;;;;;8.15;4.03;;;5.80;99.90;;;;;;5069424;28;20111;-54
2021/04/27 00:48:51;;;;;;;12.32;4.75;;;5.70;99.90;;;;;;5070727;28;20056;-50
2021/04/27 00:51:18;;;;;;;7.50;4.43;;;5.70;99.90;;;;;;5068779;28;20111;-49
2021/04/27 00:53:43;;;;;;;9.05;4.65;;;5.70;99.90;;;;;;5072044;28;20024;-50
2021/04/27 00:56:09;;;;;;;7.70;4.22;;;5.60;99.90;;;;;;5084007;28;20036;-53
2021/04/27 00:58:34;;;;;;;13.60;4.90;;;5.50;99.90;;;;;;5069807;28;20029;-54
2021/04/27 01:01:00;;;;;;;12.07;5.05;;;5.40;99.90;;;;;;5073454;28;20063;-52
2021/04/27 01:03:26;;;;;;;11.90;5.38;;;5.40;99.90;;;;;;5074922;28;20089;-49
2021/04/27 01:05:51;;;;;;;14.43;5.05;;;5.40;99.90;;;;;;5066714;28;20033;-46
2021/04/27 01:08:37;;;;;;;7.35;4.18;;;5.40;99.90;;;;;;5066364;28;20031;-50
2021/04/27 01:11:15;;;;;;;10.02;4.57;;;5.40;99.90;;;;;;5065598;28;20078;-55
2021/04/27 01:14:18;;;;;;;7.28;4.43;;;5.50;99.90;;;;;;5068368;28;20056;-49
2021/04/27 01:16:49;;;;;;;12.85;4.97;;;5.50;99.90;;;;;;5068295;28;20043;-52
2021/04/27 01:19:18;;;;;;;8.95;4.63;;;5.50;99.90;;;;;;5072292;28;20032;-50
2021/04/27 01:21:44;;;;;;;10.18;5.40;;;5.50;99.90;;;;;;5073915;28;20028;-52
2021/04/27 01:24:42;;;;;;;9.18;4.70;;;5.40;99.90;;;;;;5070441;28;20082;-52
2021/04/27 01:27:08;;;;;;;11.40;4.97;;;5.40;99.90;;;;;;5057651;28;20103;-50
2021/04/27 01:29:35;;;;;;;7.53;4.70;;;5.40;99.90;;;;;;5074447;28;20029;-50
2021/04/27 01:32:03;;;;;;;7.80;4.40;;;5.40;99.90;;;;;;5073602;28;20508;-52
2021/04/27 01:34:33;;;;;;;8.55;3.92;;;5.40;99.90;;;;;;5073747;28;20511;-52
2021/04/27 01:36:59;;;;;;;9.18;4.03;;;5.40;99.90;;;;;;5077998;28;20103;-54
2021/04/27 01:39:27;;;;;;;8.30;4.50;;;5.40;99.90;;;;;;5066268;28;20301;-52
2021/04/27 01:42:00;;;;;;;8.10;4.53;;;5.40;99.90;;;;;;5073693;28;20029;-52
2021/04/27 01:44:28;;;;;;;9.27;4.85;;;5.40;99.90;;;;;;5066857;28;20513;-52
2021/04/27 01:46:53;;;;;;;13.48;4.88;;;5.40;99.90;;;;;;5069171;28;20285;-51
2021/04/27 01:49:19;;;;;;;10.10;5.35;;;5.30;99.90;;;;;;5079566;28;20012;-54
2021/04/27 01:51:46;;;;;;;11.95;5.03;;;5.20;99.90;;;;;;5073866;28;20048;-54
2021/04/27 01:54:12;;;;;;;8.63;4.25;;;5.20;99.90;;;;;;5071185;28;20024;-49
2021/04/27 01:56:38;;;;;;;8.73;5.07;;;5.20;99.90;;;;;;5074208;28;20032;-50
2021/04/27 01:59:05;;;;;;;12.55;4.93;;;5.10;99.90;;;;;;5073042;28;20107;-49
2021/04/27 02:01:31;;;;;;;12.52;4.85;;;5.10;99.90;;;;;;5072096;28;20020;-51
2021/04/27 02:03:56;;;;;;;8.60;4.57;;;5.10;99.90;;;;;;5073217;28;20024;-49
2021/04/27 02:06:22;;;;;;;7.95;4.20;;;5.10;99.90;;;;;;5076763;28;20025;-49
2021/04/27 02:08:58;;;;;;;9.85;4.93;;;5.20;99.90;;;;;;5075867;28;20112;-49
2021/04/27 02:11:25;;;;;;;9.18;4.80;;;5.20;99.90;;;;;;5076586;28;20039;-49
2021/04/27 02:13:51;;;;;;;9.90;4.95;;;5.20;99.90;;;;;;5071268;28;20043;-48
2021/04/27 02:16:19;;;;;;;10.82;4.78;;;5.10;99.90;;;;;;5071155;28;20024;-52
2021/04/27 02:18:54;;;;;;;12.40;5.03;;;5.10;99.90;;;;;;5079525;28;20027;-49
2021/04/27 02:21:22;;;;;;;12.77;4.80;;;5.00;99.90;;;;;;5075921;28;20490;-49
2021/04/27 02:23:48;;;;;;;13.27;4.63;;;5.10;99.90;;;;;;5071945;28;20078;-53
2021/04/27 02:26:15;;;;;;;10.20;4.10;;;5.10;99.90;;;;;;5070631;28;20033;-52
2021/04/27 02:28:42;;;;;;;10.02;3.88;;;5.10;99.90;;;;;;5069991;28;20501;-50
2021/04/27 02:31:08;;;;;;;6.35;4.00;;;5.20;99.90;;;;;;5078288;28;20028;-52
2021/04/27 02:33:34;;;;;;;6.22;3.72;;;5.20;99.90;;;;;;5081674;28;20336;-49
2021/04/27 02:36:01;;;;;;;12.25;4.65;;;5.30;99.90;;;;;;5077270;28;20101;-52
2021/04/27 02:38:27;;;;;;;8.10;3.92;;;5.30;99.90;;;;;;5073285;28;20086;-50
2021/04/27 02:40:55;;;;;;;11.90;4.00;;;5.30;99.90;;;;;;5079432;28;20028;-51
2021/04/27 02:43:21;;;;;;;13.50;3.58;;;5.40;99.90;;;;;;5077039;28;20088;-50
2021/04/27 02:45:47;;;;;;;9.13;4.18;;;5.40;99.90;;;;;;5080718;28;20067;-49
2021/04/27 02:48:16;;;;;;;9.30;4.57;;;5.50;99.90;;;;;;5073126;28;20123;-50
2021/04/27 02:50:44;;;;;;;16.15;4.03;;;5.50;99.90;;;;;;5075723;28;20067;-53
2021/04/27 02:53:12;;;;;;;6.95;3.40;;;5.50;99.90;;;;;;5073837;28;20055;-49
2021/04/27 02:55:38;;;;;;;10.98;5.20;;;5.50;99.90;;;;;;5083604;28;20028;-51
2021/04/27 02:58:03;;;;;;;8.15;3.83;;;5.50;99.90;;;;;;5078052;28;20052;-51
2021/04/27 03:00:29;;;;;;;7.45;3.25;;;5.50;99.90;;;;;;5077257;28;20024;-50
2021/04/27 03:02:55;;;;;;;11.50;4.03;;;5.50;99.90;;;;;;5078937;28;20093;-51
2021/04/27 03:05:20;;;;;;;13.48;4.13;;;5.50;99.90;;;;;;5068245;28;20029;-53
2021/04/27 03:07:46;;;;;;;10.35;3.58;;;5.50;99.90;;;;;;5075815;28;20043;-51
2021/04/27 03:10:12;;;;;;;10.65;3.13;;;5.50;99.90;;;;;;5076820;28;20028;-53
2021/04/27 03:12:37;;;;;;;8.00;3.60;;;5.40;99.90;;;;;;5077482;28;20020;-50
2021/04/27 03:15:05;;;;;;;6.13;3.58;;;5.40;99.90;;;;;;5074625;28;20109;-53
2021/04/27 03:17:31;;;;;;;8.63;5.45;;;5.30;99.90;;;;;;5075899;28;20056;-57
2021/04/27 03:19:57;;;;;;;7.97;3.90;;;5.30;99.90;;;;;;5079992;28;20059;-49
2021/04/27 03:22:23;;;;;;;7.82;3.95;;;5.20;99.90;;;;;;5072337;28;20029;-52
2021/04/27 03:24:48;;;;;;;7.07;4.05;;;5.20;99.90;;;;;;5070511;28;20044;-53
2021/04/27 03:27:14;;;;;;;4.50;3.47;;;5.00;99.90;;;;;;5067363;28;20043;-53
2021/04/27 03:29:40;;;;;;;6.32;4.10;;;5.10;99.90;;;;;;5064970;28;20025;-52
2021/04/27 03:32:06;;;;;;;6.15;3.45;;;5.00;99.90;;;;;;5066319;28;20020;-53
2021/04/27 03:34:32;;;;;;;16.27;4.60;;;5.00;99.90;;;;;;5066685;28;20035;-52
2021/04/27 03:36:57;;;;;;;6.85;5.10;;;5.00;99.90;;;;;;5066694;28;20116;-51
2021/04/27 03:39:23;;;;;;;6.25;4.15;;;4.90;99.90;;;;;;5073405;28;20453;-49
2021/04/27 03:41:49;;;;;;;11.13;4.20;;;4.80;99.90;;;;;;5076012;28;20028;-48
2021/04/27 03:44:14;;;;;;;8.45;4.22;;;4.80;99.90;;;;;;5073675;28;20043;-49
2021/04/27 03:46:40;;;;;;;11.27;3.92;;;4.70;99.90;;;;;;5067588;28;20034;-49
2021/04/27 03:49:05;;;;;;;9.23;4.15;;;4.70;99.90;;;;;;5073583;28;20103;-53
2021/04/27 03:51:31;;;;;;;10.88;3.88;;;4.60;99.90;;;;;;5076556;28;20020;-47
2021/04/27 03:53:56;;;;;;;7.53;4.18;;;4.50;99.90;;;;;;5072114;28;20478;-49
2021/04/27 03:56:22;;;;;;;8.32;4.28;;;4.50;99.90;;;;;;5071493;28;20021;-49
2021/04/27 03:58:47;;;;;;;6.75;3.83;;;4.50;99.90;;;;;;5074586;28;20032;-53
2021/04/27 04:01:13;;;;;;;7.30;4.40;;;4.40;99.90;;;;;;5066041;28;20036;-51
2021/04/27 04:03:40;;;;;;;10.10;4.25;;;4.40;99.90;;;;;;5072564;28;20031;-53
2021/04/27 04:06:05;;;;;;;10.02;4.13;;;4.40;99.90;;;;;;5080476;28;20043;-50
2021/04/27 04:08:32;;;;;;;9.32;4.43;;;4.30;99.90;;;;;;5075503;28;20036;-52
2021/04/27 04:10:58;;;;;;;10.23;4.53;;;4.40;99.90;;;;;;5077599;28;20059;-51
2021/04/27 04:13:24;;;;;;;8.90;4.15;;;4.30;99.90;;;;;;5074992;28;20475;-49
2021/04/27 04:15:49;;;;;;;9.95;4.20;;;4.30;99.90;;;;;;5071674;28;20093;-49
2021/04/27 04:18:15;;;;;;;13.52;4.57;;;4.20;99.90;;;;;;5073801;28;20020;-50
2021/04/27 04:20:41;;;;;;;10.90;4.80;;;4.20;99.90;;;;;;5077145;28;20088;-51
2021/04/27 04:23:06;;;;;;;13.27;4.85;;;4.20;99.90;;;;;;5078820;28;20032;-50
2021/04/27 04:25:32;;;;;;;11.38;4.28;;;4.20;99.90;;;;;;5082870;28;20028;-50
2021/04/27 04:27:57;;;;;;;10.77;4.72;;;4.10;99.90;;;;;;5073768;28;20021;-50
2021/04/27 04:30:25;;;;;;;12.20;5.38;;;4.20;99.90;;;;;;5072173;28;20024;-50
2021/04/27 04:32:52;;;;;;;11.25;5.00;;;4.10;99.90;;;;;;5071626;28;20105;-50
2021/04/27 04:35:20;;;;;;;7.63;4.88;;;4.20;99.90;;;;;;5069286;28;20021;-50
2021/04/27 04:37:46;;;;;;;17.20;5.40;;;4.10;99.90;;;;;;5072569;28;20486;-52
2021/04/27 04:40:13;;;;;;;12.98;4.35;;;4.10;99.90;;;;;;5070243;28;20071;-50
2021/04/27 04:42:39;;;;;;;10.13;4.70;;;4.10;99.90;;;;;;5074801;28;20028;-49
2021/04/27 04:45:08;;;;;;;9.02;4.85;;;4.10;99.90;;;;;;5076435;28;20021;-53
2021/04/27 04:47:34;;;;;;;10.85;3.95;;;4.20;99.90;;;;;;5081542;28;20389;-48
2021/04/27 04:50:00;;;;;;;20.75;4.78;;;4.20;99.90;;;;;;5070021;28;20108;-53
2021/04/27 04:52:25;;;;;;;7.47;3.63;;;4.30;99.90;;;;;;5070217;28;20032;-53
2021/04/27 04:54:51;;;;;;;7.68;4.18;;;4.40;99.90;;;;;;5075112;28;20086;-50
2021/04/27 04:57:17;;;;;;;12.02;5.55;;;4.50;99.90;;;;;;5076415;28;20421;-51
2021/04/27 04:59:42;;;;;;;10.68;4.03;;;4.60;99.90;;;;;;5079687;28;20047;-52
2021/04/27 05:02:08;;;;;;;7.72;4.32;;;4.70;99.90;;;;;;5068866;28;20036;-52
2021/04/27 05:04:34;;;;;;;8.15;4.22;;;4.80;99.90;;;;;;5072627;28;20036;-55
2021/04/27 05:07:03;;;;;;;19.00;3.72;;;4.90;99.90;;;;;;5072709;28;20036;-53
2021/04/27 05:09:29;;;;;;;12.50;3.55;;;5.10;99.90;;;;;;5071841;28;20027;-53
2021/04/27 05:11:56;;;;;;;14.02;3.80;;;5.20;99.90;;;;;;5079142;28;20028;-51
2021/04/27 05:14:22;;;;;;;11.25;4.00;;;5.30;99.90;;;;;;5074160;28;20024;-49
2021/04/27 05:16:48;;;;;;;5.50;3.00;;;5.40;99.90;;;;;;5075256;28;20108;-49
2021/04/27 05:19:14;;;;;;;10.10;3.83;;;5.50;99.90;;;;;;5074557;28;20062;-49
2021/04/27 05:21:39;;;;;;;11.57;3.10;;;5.50;99.90;;;;;;5080143;28;20031;-51
2021/04/27 05:24:06;;;;;;;5.22;3.10;;;5.60;99.90;;;;;;5080653;28;20402;-52
2021/04/27 05:26:32;;;;;;;14.40;3.95;;;5.70;99.90;;;;;;5085129;28;20082;-50
2021/04/27 05:28:58;;;;;;;10.82;3.45;;;5.70;99.90;;;;;;5076108;28;20028;-51
2021/04/27 05:31:23;;;;;;;7.35;3.47;;;5.80;99.90;;;;;;5073866;28;20035;-52
2021/04/27 05:33:49;;;;;;;10.65;3.90;;;5.90;99.90;;;;;;5070100;28;20039;-52
2021/04/27 05:36:14;;;;;;;6.72;3.08;;;5.90;99.90;;;;;;5066204;28;20583;-54
2021/04/27 05:38:40;;;;;;;4.75;2.88;;;6.00;99.90;;;;;;5071992;28;20406;-50
2021/04/27 05:41:06;;;;;;;6.72;2.88;;;6.10;99.90;;;;;;5069400;28;20488;-50
2021/04/27 05:43:31;;;;;;;6.22;2.92;;;6.20;99.90;;;;;;5073681;28;20024;-52
2021/04/27 05:45:57;;;;;;;5.80;3.25;;;6.30;99.90;;;;;;5076268;28;20547;-49
2021/04/27 05:48:22;;;;;;;5.35;2.80;;;6.40;99.90;;;;;;5070677;28;20021;-51
2021/04/27 05:50:48;;;;;;;14.55;4.55;;;6.50;99.90;;;;;;5076775;28;20089;-49
2021/04/27 05:53:14;;;;;;;5.90;2.40;;;6.50;99.90;;;;;;5070079;28;20052;-52
2021/04/27 05:55:40;;;;;;;10.13;2.88;;;6.60;99.90;;;;;;5074688;28;20037;-51
2021/04/27 05:58:10;;;;;;;7.22;2.55;;;6.70;99.90;;;;;;5071890;28;20085;-49
2021/04/27 06:00:36;;;;;;;7.10;2.83;;;6.70;99.90;;;;;;5075345;28;20514;-51
2021/04/27 06:03:02;;;;;;;7.18;2.72;;;6.80;99.90;;;;;;5068135;28;20028;-49
2021/04/27 06:05:28;;;;;;;6.30;2.75;;;6.80;99.90;;;;;;5072871;28;20029;-52
2021/04/27 06:07:53;;;;;;;3.90;2.30;;;6.90;99.90;;;;;;5073726;28;20066;-52
2021/04/27 06:10:19;;;;;;;4.55;2.55;;;7.00;99.90;;;;;;5071948;28;20625;-51
2021/04/27 06:12:45;;;;;;;11.00;2.60;;;7.00;99.90;;;;;;5071876;28;20032;-53
2021/04/27 06:15:12;;;;;;;11.55;2.42;;;7.10;99.90;;;;;;5071681;28;20052;-52
2021/04/27 06:17:38;;;;;;;3.65;2.08;;;7.10;99.90;;;;;;5071014;28;20109;-53
2021/04/27 06:20:09;;;;;;;6.03;2.30;;;7.20;99.90;;;;;;5070908;28;20064;-56
2021/04/27 06:22:36;;;;;;;7.47;2.58;;;7.30;99.90;;;;;;5072809;28;20079;-57
2021/04/27 06:25:02;;;;;;;7.75;2.75;;;7.40;99.90;;;;;;5071730;28;20016;-56
2021/04/27 06:27:29;;;;;;;6.05;2.55;;;7.40;99.90;;;;;;5074057;28;20021;-57
2021/04/27 06:29:56;;;;;;;7.75;2.50;;;7.50;99.90;;;;;;5066970;28;20448;-54
2021/04/27 06:32:22;;;;;;;4.97;3.20;;;7.60;99.90;;;;;;5070621;28;20501;-55
2021/04/27 06:34:48;;;;;;;7.47;2.63;;;7.70;99.90;;;;;;5068750;28;20029;-56
2021/04/27 06:37:13;;;;;;;8.63;3.30;;;7.70;99.90;;;;;;5078403;28;20028;-55
2021/04/27 06:39:40;;;;;;;4.55;2.40;;;7.70;99.90;;;;;;5070906;28;20024;-55
2021/04/27 06:42:06;;;;;;;3.15;1.95;;;7.80;99.90;;;;;;5065822;28;20029;-56
2021/04/27 06:44:32;;;;;;;9.35;2.45;;;7.90;99.90;;;;;;5074094;28;20036;-56
2021/04/27 06:46:57;;;;;;;9.23;2.72;;;7.90;99.90;;;;;;5070225;28;20029;-56
2021/04/27 06:49:23;;;;;;;4.03;2.17;;;8.00;99.90;;;;;;5070228;28;20031;-56
2021/04/27 06:51:49;;;;;;;3.55;2.25;;;8.10;99.90;;;;;;5069668;28;20051;-57
2021/04/27 06:54:15;;;;;;;6.05;2.50;;;8.10;99.90;;;;;;5071351;28;20306;-55
2021/04/27 06:56:41;;;;;;;34.85;4.50;;;8.20;99.90;;;;;;5078252;28;20374;-54
2021/04/27 06:59:09;;;;;;;8.75;2.85;;;8.30;99.90;;;;;;5071499;28;20028;-53
2021/04/27 07:01:35;;;;;;;5.25;2.03;;;8.30;99.90;;;;;;5075449;28;20036;-55
2021/04/27 07:04:00;;;;;;;4.07;2.67;;;8.40;99.90;;;;;;5071817;28;20037;-56
2021/04/27 07:06:26;;;;;;;7.03;2.47;;;8.40;99.90;;;;;;5072315;28;20035;-56
2021/04/27 07:08:51;;;;;;;8.57;2.88;;;8.50;99.90;;;;;;5070760;28;20026;-54
2021/04/27 07:11:17;;;;;;;5.88;2.25;;;8.60;99.90;;;;;;5068527;28;20048;-55
2021/04/27 07:13:42;;;;;;;9.50;2.53;;;8.70;99.90;;;;;;5086624;28;20032;-56
2021/04/27 07:16:08;;;;;;;5.07;2.65;;;8.70;99.90;;;;;;5072752;28;20078;-56
2021/04/27 07:18:33;;;;;;;7.85;2.47;;;8.80;99.90;;;;;;5068297;28;20036;-56
2021/04/27 07:20:59;;;;;;;6.57;2.40;;;8.90;99.90;;;;;;5070051;28;20036;-57
2021/04/27 07:23:25;;;;;;;6.15;2.10;;;8.90;99.90;;;;;;5066617;28;20032;-55
2021/04/27 07:25:51;;;;;;;6.55;2.10;;;9.10;99.90;;;;;;5069680;28;20028;-55
2021/04/27 07:28:16;;;;;;;9.30;2.50;;;9.10;99.90;;;;;;5066187;28;20108;-56
2021/04/27 07:30:42;;;;;;;5.15;2.45;;;9.20;99.90;;;;;;5063852;28;20029;-57
2021/04/27 07:33:08;;;;;;;7.03;2.65;;;9.30;99.90;;;;;;5063789;28;20467;-56
2021/04/27 07:35:34;;;;;;;8.18;2.20;;;9.30;99.90;;;;;;5062286;28;20029;-55
2021/04/27 07:38:02;;;;;;;7.63;2.85;;;9.40;99.90;;;;;;5063818;28;20097;-53
2021/04/27 07:40:31;;;;;;;3.55;2.05;;;9.50;99.90;;;;;;5062341;28;20080;-56
2021/04/27 07:42:57;;;;;;;7.07;2.70;;;9.60;99.90;;;;;;5060635;28;20067;-55
2021/04/27 07:45:30;;;;;;;13.32;3.85;;;9.70;99.90;;;;;;5062696;28;20067;-54
2021/04/27 07:47:56;;;;;;;7.35;3.17;;;9.70;99.90;;;;;;5059757;28;20021;-56
2021/04/27 07:50:22;;;;;;;5.88;2.67;;;9.80;99.90;;;;;;5063698;28;20111;-55
2021/04/27 07:52:47;;;;;;;8.52;2.20;;;9.90;99.90;;;;;;5057748;28;20107;-59
2021/04/27 07:55:16;;;;;;;5.78;2.83;;;10.00;99.90;;;;;;5062515;28;20124;-60
2021/04/27 07:57:42;;;;;;;10.98;2.38;;;10.10;99.90;;;;;;5062614;28;20081;-58
2021/04/27 08:00:09;;;;;;;15.35;3.83;;;10.20;99.90;;;;;;5064453;28;20429;-56
2021/04/27 08:02:36;;;;;;;14.98;2.92;;;10.30;99.90;;;;;;5062029;28;20039;-54
2021/04/27 08:05:02;;;;;;;4.50;2.78;;;10.30;99.90;;;;;;5066991;28;20068;-57
2021/04/27 08:07:27;;;;;;;5.70;3.00;;;10.40;99.90;;;;;;5066663;28;20076;-57
2021/04/27 08:09:53;;;;;;;8.02;2.78;;;10.50;99.90;;;;;;5064834;28;20024;-58
2021/04/27 08:12:18;;;;;;;4.78;2.30;;;10.60;99.90;;;;;;5066597;28;20064;-56
2021/04/27 08:14:44;;;;;;;6.05;2.58;;;10.70;99.90;;;;;;5059354;28;20133;-56
2021/04/27 08:17:10;;;;;;;4.07;2.40;;;10.70;99.90;;;;;;5064219;28;20426;-56
2021/04/27 08:19:36;;;;;;;9.32;2.75;;;10.80;99.90;;;;;;5065562;28;20052;-55
2021/04/27 08:22:05;;;;;;;4.88;2.22;;;10.80;99.90;;;;;;5061805;28;20457;-53
2021/04/27 08:24:31;;;;;;;7.60;2.53;;;10.90;99.90;;;;;;5058481;28;20067;-56
2021/04/27 08:26:57;;;;;;;5.60;2.33;;;11.00;99.90;;;;;;5061363;28;20033;-54
2021/04/27 08:29:22;;;;;;;4.22;2.30;;;11.00;99.90;;;;;;5061949;28;20032;-56
2021/04/27 08:31:48;;;;;;;7.72;2.58;;;11.10;99.90;;;;;;5065585;28;20020;-58
2021/04/27 08:34:13;;;;;;;5.20;2.58;;;11.20;99.90;;;;;;5060856;28;20063;-56
2021/04/27 08:36:39;;;;;;;7.45;2.28;;;11.20;99.90;;;;;;5064434;28;20044;-56
2021/04/27 08:39:05;;;;;;;8.45;2.92;;;11.30;99.50;;;;;;5067198;28;20044;-58
2021/04/27 08:41:32;;;;;;;6.32;2.13;;;11.30;99.30;;;;;;5062691;28;20075;-54
2021/04/27 08:43:57;;;;;;;4.78;2.65;;;11.40;99.90;;;;;;5061343;28;20027;-56
2021/04/27 08:46:23;;;;;;;8.82;2.78;;;11.50;99.90;;;;;;5065574;28;20024;-56
2021/04/27 08:48:49;;;;;;;8.27;2.10;;;11.60;99.90;;;;;;5062622;28;20032;-57
2021/04/27 08:51:16;;;;;;;7.15;2.78;;;11.70;99.80;;;;;;5065633;28;20379;-57
2021/04/27 08:53:42;;;;;;;8.88;2.78;;;11.90;99.50;;;;;;5063356;28;20031;-57
2021/04/27 08:56:07;;;;;;;6.25;2.92;;;12.00;99.00;;;;;;5060272;28;20029;-53
2021/04/27 08:58:33;;;;;;;6.72;3.03;;;12.00;99.00;;;;;;5059764;28;20061;-57
2021/04/27 09:00:59;;;;;;;10.02;2.67;;;12.10;98.90;;;;;;5066345;28;20112;-55
2021/04/27 09:03:24;;;;;;;5.78;3.13;;;12.20;98.20;;;;;;5067899;28;20475;-56
2021/04/27 09:05:50;;;;;;;14.70;3.03;;;12.30;99.70;;;;;;5066778;28;20079;-58
2021/04/27 09:08:32;;;;;;;6.18;3.08;;;12.30;99.00;;;;;;5062446;28;20478;-57
2021/04/27 09:10:58;;;;;;;7.07;2.97;;;12.40;97.50;;;;;;5059732;28;20028;-58
2021/04/27 09:13:26;;;;;;;5.72;2.60;;;12.50;97.70;;;;;;5064294;28;20025;-55
2021/04/27 09:15:53;;;;;;;5.38;2.45;;;12.60;96.60;;;;;;5067066;28;20032;-57
2021/04/27 09:18:42;;;;;;;4.82;2.47;;;12.80;97.50;;;;;;5065908;28;20024;-57
2021/04/27 09:21:09;;;;;;;7.55;2.80;;;13.00;96.80;;;;;;5062972;28;20056;-57
2021/04/27 09:23:40;;;;;;;7.10;2.60;;;13.20;96.80;;;;;;5063855;28;20443;-58
2021/04/27 09:26:11;;;;;;;5.55;2.80;;;13.50;97.30;;;;;;5061849;28;20109;-57
2021/04/27 09:28:42;;;;;;;5.38;2.80;;;13.60;94.30;;;;;;5065221;28;20027;-58
2021/04/27 09:31:32;;;;;;;4.55;2.75;;;13.60;94.50;;;;;;5064118;28;20115;-56
2021/04/27 09:34:20;;;;;;;6.85;3.15;;;13.60;94.20;;;;;;5058410;28;20041;-57
2021/04/27 09:36:47;;;;;;;6.15;2.67;;;13.70;94.70;;;;;;5062080;28;20036;-55
2021/04/27 09:39:13;;;;;;;5.93;2.55;;;13.70;94.90;;;;;;5055826;28;20044;-55
2021/04/27 09:41:39;;;;;;;9.68;2.53;;;13.60;93.30;;;;;;5060828;28;20037;-57
2021/04/27 09:44:04;;;;;;;9.00;3.05;;;13.70;92.50;;;;;;5059050;28;20104;-57
2021/04/27 09:46:30;;;;;;;5.68;3.22;;;13.70;94.20;;;;;;5066243;28;20035;-56
2021/04/27 09:48:59;;;;;;;10.60;2.50;;;13.70;92.00;;;;;;5066530;28;20036;-55
2021/04/27 09:51:31;;;;;;;9.77;2.88;;;14.10;93.50;;;;;;5070136;28;20040;-56
2021/04/27 09:54:02;;;;;;;8.15;2.83;;;14.40;93.90;;;;;;5066351;28;20032;-57
2021/04/27 09:56:41;;;;;;;3.50;2.70;;;14.70;91.60;;;;;;5066717;28;20020;-57
2021/04/27 09:59:12;;;;;;;6.00;2.85;;;14.90;90.00;;;;;;5070791;28;20056;-58
2021/04/27 10:01:39;;;;;;;4.57;2.45;;;15.10;92.90;;;;;;5068075;28;20055;-55
2021/04/27 10:04:06;;;;;;;4.97;3.13;;;15.30;92.50;;;;;;5069228;28;20033;-57
2021/04/27 10:06:32;;;;;;;5.78;2.80;;;15.60;90.60;;;;;;5070733;28;20028;-57
2021/04/27 10:08:58;;;;;;;5.35;2.92;;;15.80;88.70;;;;;;5068380;28;20085;-54
2021/04/27 10:11:27;;;;;;;6.32;3.15;;;16.00;83.90;;;;;;5063615;28;20017;-58
2021/04/27 10:13:55;;;;;;;7.68;3.15;;;15.80;83.80;;;;;;5064359;28;20443;-57
2021/04/27 10:16:22;;;;;;;3.95;2.50;;;15.80;83.50;;;;;;5067712;28;20743;-56
2021/04/27 10:18:49;;;;;;;8.57;2.88;;;16.00;82.20;;;;;;5067445;28;20032;-57
2021/04/27 10:21:14;;;;;;;5.15;2.70;;;15.90;80.00;;;;;;5058001;28;20040;-56
2021/04/27 10:23:42;;;;;;;5.25;2.50;;;15.50;86.60;;;;;;5063130;28;20024;-54
2021/04/27 10:26:08;;;;;;;7.63;3.00;;;15.50;82.20;;;;;;5068173;28;20021;-52
2021/04/27 10:29:04;;;;;;;9.27;3.67;;;15.50;85.80;;;;;;5068741;28;20032;-57
2021/04/27 10:31:33;;;;;;;11.57;3.47;;;15.80;79.90;;;;;;5067425;28;20171;-57
2021/04/27 10:34:10;;;;;;;8.40;3.22;;;15.70;77.70;;;;;;5065023;28;20020;-58
2021/04/27 10:36:40;;;;;;;5.78;3.08;;;15.90;82.50;;;;;;5058392;28;20115;-54
2021/04/27 10:39:09;;;;;;;8.75;3.42;;;16.30;77.00;;;;;;5063013;28;20505;-55
2021/04/27 10:41:48;;;;;;;12.32;3.35;;;16.50;82.90;;;;;;5063384;28;20055;-57
2021/04/27 10:44:17;;;;;;;7.53;2.80;;;16.70;81.30;;;;;;5066358;28;20059;-56
2021/04/27 10:46:46;;;;;;;8.43;2.85;;;17.10;77.80;;;;;;5073720;28;20028;-56
2021/04/27 10:49:43;;;;;;;4.68;3.20;;;17.40;77.30;;;;;;5126668;27;20107;-56
2021/04/27 10:52:32;;;;;;;6.13;3.05;;;17.60;69.90;;;;;;5143097;22;20454;-56
2021/04/27 10:55:26;;;;;;;14.68;3.28;;;17.20;73.50;;;;;;5125638;27;20076;-54
2021/04/27 10:58:00;;;;;;;824.10;60.35;;;17.00;71.30;;;;;;5121905;27;20122;-56
2021/04/27 11:00:33;;;;;;;4.07;2.95;;;17.00;79.70;;;;;;5100821;27;20520;-56
2021/04/27 11:03:24;;;;;;;24.02;3.45;;;17.00;69.70;;;;;;5100965;28;20353;-57
2021/04/27 11:05:51;;;;;;;6.10;3.15;;;17.10;74.60;;;;;;5093896;28;20378;-56
2021/04/27 11:08:16;;;;;;;6.32;2.85;;;17.00;68.80;;;;;;5093902;28;20127;-57
2021/04/27 11:10:43;;;;;;;126.45;12.02;;;17.00;69.10;;;;;;5093368;28;20098;-56
2021/04/27 11:13:10;;;;;;;5.40;2.92;;;17.30;73.80;;;;;;5095695;28;20036;-60
2021/04/27 11:15:37;;;;;;;9.98;3.33;;;17.70;68.80;;;;;;5094043;28;20028;-55
2021/04/27 11:18:19;;;;;;;7.22;2.92;;;17.70;68.20;;;;;;5098780;28;20510;-54
2021/04/27 11:20:54;;;;;;;8.65;3.60;;;17.70;65.40;;;;;;5095568;28;20016;-56
2021/04/27 11:23:43;;;;;;;9.40;2.95;;;17.60;65.10;;;;;;5092821;28;20046;-54
2021/04/27 11:26:33;;;;;;;11.80;3.50;;;17.50;71.20;;;;;;5094078;28;20035;-56
2021/04/27 11:29:17;;;;;;;8.02;3.08;;;17.80;74.60;;;;;;5097479;28;20076;-55
2021/04/27 11:32:06;;;;;;;3.25;2.90;;;18.30;65.20;;;;;;5096556;28;20032;-56
2021/04/27 11:34:54;;;;;;;5.80;2.97;;;18.30;63.30;;;;;;5096017;28;20037;-57
2021/04/27 11:37:26;;;;;;;4.93;3.30;;;18.20;67.80;;;;;;5088695;28;20058;-58
2021/04/27 11:39:53;;;;;;;7.20;3.30;;;18.20;66.20;;;;;;5094431;28;20191;-58
2021/04/27 11:42:26;;;;;;;8.27;3.17;;;18.40;64.60;;;;;;5092188;27;20103;-57
2021/04/27 11:45:04;;;;;;;4.68;2.90;;;18.40;61.70;;;;;;5088657;28;20074;-57
2021/04/27 11:47:38;;;;;;;9.27;3.70;;;18.30;66.00;;;;;;5100639;28;20032;-56
2021/04/27 11:50:13;;;;;;;3.65;3.15;;;18.40;62.80;;;;;;5094243;28;20026;-57
2021/04/27 11:52:46;;;;;;;;;;;18.30;65.10;;;;;;5104271;27;20035;-57
2021/04/27 11:55:25;;;;;;;4.60;3.35;;;18.10;65.00;;;;;;5116373;27;19954;-58
2021/04/27 11:57:52;;;;;;;4.82;3.40;;;18.10;64.60;;;;;;5113916;27;20443;-57
2021/04/27 12:00:20;;;;;;;8.98;3.78;;;18.20;64.90;;;;;;5108423;27;20030;-58
2021/04/27 12:02:45;;;;;;;8.98;3.80;;;18.40;62.00;;;;;;5104765;27;20059;-57
2021/04/27 12:05:11;;;;;;;9.70;2.78;;;18.20;60.20;;;;;;5097174;27;20369;-55
2021/04/27 12:07:37;;;;;;;9.63;3.50;;;18.20;59.30;;;;;;5101971;27;20024;-58
2021/04/27 12:10:04;;;;;;;12.32;3.05;;;18.40;64.30;;;;;;5097958;28;20028;-57
2021/04/27 12:12:29;;;;;;;5.63;2.60;;;18.70;59.30;;;;;;5097497;27;20036;-58
2021/04/27 12:15:00;;;;;;;6.28;3.50;;;19.20;61.40;;;;;;5094493;27;20046;-57
2021/04/27 12:17:31;;;;;;;7.22;3.00;;;19.40;61.00;;;;;;5100384;27;20031;-56
2021/04/27 12:20:18;;;;;;;9.77;3.60;;;19.40;57.80;;;;;;5101246;27;20066;-56
2021/04/27 12:22:49;;;;;;;5.15;3.15;;;19.30;58.00;;;;;;5077730;28;20032;-57
2021/04/27 12:25:33;;;;;;;4.72;3.60;;;19.20;57.60;;;;;;5101909;27;20024;-57
2021/04/27 12:28:06;;;;;;;4.37;3.37;;;19.20;64.40;;;;;;5102559;27;20085;-56
2021/04/27 12:30:35;;;;;;;4.82;3.38;;;19.50;56.80;;;;;;5079154;28;20067;-57
2021/04/27 12:33:12;;;;;;;6.85;3.58;;;18.50;57.10;;;;;;5097027;27;20024;-56
2021/04/27 12:35:39;;;;;;;9.25;3.67;;;18.10;61.50;;;;;;5095322;28;20024;-57
2021/04/27 12:38:11;;;;;;;6.72;2.88;;;18.60;57.80;;;;;;5099074;27;20020;-57
2021/04/27 12:40:39;;;;;;;8.52;3.40;;;18.70;59.90;;;;;;5098791;27;20028;-56
2021/04/27 12:43:13;;;;;;;7.95;4.90;;;19.10;61.60;;;;;;5104375;27;20019;-54
2021/04/27 12:45:48;;;;;;;5.57;4.00;;;19.30;56.00;;;;;;5100565;27;20032;-56
2021/04/27 12:48:15;;;;;;;6.22;3.67;;;18.60;60.00;;;;;;5104638;27;20035;-55
2021/04/27 12:50:52;;;;;;;5.82;3.05;;;18.60;61.80;;;;;;5095373;27;20051;-54
2021/04/27 12:53:19;;;;;;;6.55;3.40;;;18.80;57.90;;;;;;5097478;27;20072;-55
2021/04/27 12:55:54;;;;;;;7.85;3.65;;;18.90;60.80;;;;;;5099526;27;20115;-55